sensor_id;sensor_type;location;lat;lon;timestamp;pressure;altitude;pressure_sealevel;temperature;humidity
11648;BME280;5880;52.342;9.662;2023-04-06T00:01:48;101343.41;;;7.92;33.75
11648;BME280;5880;52.342;9.662;2023-04-06T00:04:14;101329.56;;;7.87;33.47
11648;BME280;5880;52.342;9.662;2023-04-06T00:06:39;101338.16;;;7.91;33.41
11648;BME280;5880;52.342;9.662;2023-04-06T00:09:05;101337.50;;;7.89;33.20
11648;BME280;5880;52.342;9.662;2023-04-06T00:11:31;101335.00;;;7.87;33.61
11648;BME280;5880;52.342;9.662;2023-04-06T00:13:56;101329.75;;;7.86;33.92
11648;BME280;5880;52.342;9.662;2023-04-06T00:16:22;101334.38;;;7.85;33.91
11648;BME280;5880;52.342;9.662;2023-04-06T00:18:48;101341.88;;;7.83;33.50
11648;BME280;5880;52.342;9.662;2023-04-06T00:21:14;101329.50;;;7.80;33.43
11648;BME280;5880;52.342;9.662;2023-04-06T00:23:41;101326.13;;;7.78;33.90
11648;BME280;5880;52.342;9.662;2023-04-06T00:26:08;101309.97;;;7.70;33.65
11648;BME280;5880;52.342;9.662;2023-04-06T00:28:34;101322.34;;;7.73;33.55
11648;BME280;5880;52.342;9.662;2023-04-06T00:31:00;101325.25;;;7.71;33.43
11648;BME280;5880;52.342;9.662;2023-04-06T00:33:25;101321.88;;;7.69;33.58
11648;BME280;5880;52.342;9.662;2023-04-06T00:35:51;101322.72;;;7.70;33.61
11648;BME280;5880;52.342;9.662;2023-04-06T00:38:17;101319.56;;;7.66;34.12
11648;BME280;5880;52.342;9.662;2023-04-06T00:40:43;101316.00;;;7.66;34.07
11648;BME280;5880;52.342;9.662;2023-04-06T00:43:13;101315.53;;;7.62;33.75
11648;BME280;5880;52.342;9.662;2023-04-06T00:45:40;101312.56;;;7.57;33.81
11648;BME280;5880;52.342;9.662;2023-04-06T00:48:07;101314.06;;;7.59;33.80
11648;BME280;5880;52.342;9.662;2023-04-06T00:50:33;101306.06;;;7.58;33.73
11648;BME280;5880;52.342;9.662;2023-04-06T00:52:59;101309.00;;;7.56;34.00
11648;BME280;5880;52.342;9.662;2023-04-06T00:55:27;101305.63;;;7.54;34.17
11648;BME280;5880;52.342;9.662;2023-04-06T00:57:53;101306.66;;;7.53;34.02
11648;BME280;5880;52.342;9.662;2023-04-06T01:00:20;101299.94;;;7.49;34.18
11648;BME280;5880;52.342;9.662;2023-04-06T01:02:46;101302.47;;;7.51;34.29
11648;BME280;5880;52.342;9.662;2023-04-06T01:05:13;101294.50;;;7.49;34.21
11648;BME280;5880;52.342;9.662;2023-04-06T01:07:38;101286.34;;;7.49;34.28
11648;BME280;5880;52.342;9.662;2023-04-06T01:10:05;101290.94;;;7.49;34.15
11648;BME280;5880;52.342;9.662;2023-04-06T01:12:30;101292.81;;;7.48;34.49
11648;BME280;5880;52.342;9.662;2023-04-06T01:14:56;101287.94;;;7.44;34.34
11648;BME280;5880;52.342;9.662;2023-04-06T01:17:22;101286.72;;;7.46;34.21
11648;BME280;5880;52.342;9.662;2023-04-06T01:19:47;101280.44;;;7.46;34.47
11648;BME280;5880;52.342;9.662;2023-04-06T01:22:17;101276.63;;;7.40;34.69
11648;BME280;5880;52.342;9.662;2023-04-06T01:24:43;101275.16;;;7.37;34.52
11648;BME280;5880;52.342;9.662;2023-04-06T01:27:09;101280.19;;;7.40;34.61
11648;BME280;5880;52.342;9.662;2023-04-06T01:29:35;101281.22;;;7.39;34.69
11648;BME280;5880;52.342;9.662;2023-04-06T01:32:01;101286.03;;;7.37;34.42
11648;BME280;5880;52.342;9.662;2023-04-06T01:34:26;101279.09;;;7.35;34.87
11648;BME280;5880;52.342;9.662;2023-04-06T01:36:52;101280.13;;;7.34;34.37
11648;BME280;5880;52.342;9.662;2023-04-06T01:39:18;101283.91;;;7.33;35.02
11648;BME280;5880;52.342;9.662;2023-04-06T01:41:44;101279.47;;;7.32;34.92
11648;BME280;5880;52.342;9.662;2023-04-06T01:44:14;101275.09;;;7.31;34.66
11648;BME280;5880;52.342;9.662;2023-04-06T01:46:40;101271.47;;;7.24;34.83
11648;BME280;5880;52.342;9.662;2023-04-06T01:49:06;101263.50;;;7.22;34.62
11648;BME280;5880;52.342;9.662;2023-04-06T01:51:31;101271.06;;;7.27;34.72
11648;BME280;5880;52.342;9.662;2023-04-06T01:53:57;101274.81;;;7.26;34.53
11648;BME280;5880;52.342;9.662;2023-04-06T01:56:22;101276.69;;;7.25;35.08
11648;BME280;5880;52.342;9.662;2023-04-06T01:58:48;101275.84;;;7.25;34.71
11648;BME280;5880;52.342;9.662;2023-04-06T02:01:14;101272.31;;;7.24;35.02
11648;BME280;5880;52.342;9.662;2023-04-06T02:03:40;101272.31;;;7.24;35.06
11648;BME280;5880;52.342;9.662;2023-04-06T02:06:05;101269.38;;;7.26;35.03
11648;BME280;5880;52.342;9.662;2023-04-06T02:08:31;101266.88;;;7.24;35.15
11648;BME280;5880;52.342;9.662;2023-04-06T02:10:57;101268.53;;;7.25;35.11
11648;BME280;5880;52.342;9.662;2023-04-06T02:13:22;101266.88;;;7.24;34.91
11648;BME280;5880;52.342;9.662;2023-04-06T02:15:48;101262.25;;;7.25;34.98
11648;BME280;5880;52.342;9.662;2023-04-06T02:18:14;101259.53;;;7.25;34.95
11648;BME280;5880;52.342;9.662;2023-04-06T02:20:39;101259.53;;;7.25;35.54
11648;BME280;5880;52.342;9.662;2023-04-06T02:23:05;101261.44;;;7.24;34.76
11648;BME280;5880;52.342;9.662;2023-04-06T02:25:31;101261.44;;;7.24;35.01
11648;BME280;5880;52.342;9.662;2023-04-06T02:27:57;101257.00;;;7.23;35.25
11648;BME280;5880;52.342;9.662;2023-04-06T02:30:22;101256.19;;;7.23;35.19
11648;BME280;5880;52.342;9.662;2023-04-06T02:32:48;101260.31;;;7.18;35.08
11648;BME280;5880;52.342;9.662;2023-04-06T02:35:14;101250.94;;;7.21;35.06
11648;BME280;5880;52.342;9.662;2023-04-06T02:37:40;101248.22;;;7.21;34.92
11648;BME280;5880;52.342;9.662;2023-04-06T02:40:06;101254.69;;;7.20;35.39
11648;BME280;5880;52.342;9.662;2023-04-06T02:42:32;101253.66;;;7.21;35.16
11648;BME280;5880;52.342;9.662;2023-04-06T02:44:58;101253.84;;;7.19;35.18
11648;BME280;5880;52.342;9.662;2023-04-06T02:47:23;101256.38;;;7.21;35.26
11648;BME280;5880;52.342;9.662;2023-04-06T02:49:49;101255.75;;;7.19;35.25
11648;BME280;5880;52.342;9.662;2023-04-06T02:52:15;101248.81;;;7.16;34.97
11648;BME280;5880;52.342;9.662;2023-04-06T02:54:40;101246.28;;;7.15;35.13
11648;BME280;5880;52.342;9.662;2023-04-06T02:57:07;101248.34;;;7.13;35.21
11648;BME280;5880;52.342;9.662;2023-04-06T02:59:33;101248.75;;;7.10;35.20
11648;BME280;5880;52.342;9.662;2023-04-06T03:01:58;101247.88;;;7.09;34.95
11648;BME280;5880;52.342;9.662;2023-04-06T03:04:24;101239.72;;;7.09;35.56
11648;BME280;5880;52.342;9.662;2023-04-06T03:06:51;101244.97;;;7.11;35.22
11648;BME280;5880;52.342;9.662;2023-04-06T03:09:17;101233.44;;;7.09;35.69
11648;BME280;5880;52.342;9.662;2023-04-06T03:11:42;101236.25;;;7.15;35.47
11648;BME280;5880;52.342;9.662;2023-04-06T03:14:08;101239.59;;;7.17;35.52
11648;BME280;5880;52.342;9.662;2023-04-06T03:16:34;101230.16;;;7.13;35.46
11648;BME280;5880;52.342;9.662;2023-04-06T03:19:00;101234.81;;;7.19;35.33
11648;BME280;5880;52.342;9.662;2023-04-06T03:21:25;101231.06;;;7.21;35.52
11648;BME280;5880;52.342;9.662;2023-04-06T03:23:51;101233.34;;;7.17;35.43
11648;BME280;5880;52.342;9.662;2023-04-06T03:26:17;101239.03;;;7.22;35.17
11648;BME280;5880;52.342;9.662;2023-04-06T03:28:43;101244.47;;;7.22;35.31
11648;BME280;5880;52.342;9.662;2023-04-06T03:31:08;101238.38;;;7.20;35.16
11648;BME280;5880;52.342;9.662;2023-04-06T03:33:34;101232.50;;;7.16;35.12
11648;BME280;5880;52.342;9.662;2023-04-06T03:36:00;101233.34;;;7.17;35.59
11648;BME280;5880;52.342;9.662;2023-04-06T03:38:25;101240.66;;;7.16;35.88
11648;BME280;5880;52.342;9.662;2023-04-06T03:40:51;101233.28;;;7.10;35.64
11648;BME280;5880;52.342;9.662;2023-04-06T03:43:16;101247.50;;;7.12;35.50
11648;BME280;5880;52.342;9.662;2023-04-06T03:45:42;101239.53;;;7.11;34.91
11648;BME280;5880;52.342;9.662;2023-04-06T03:48:08;101241.59;;;7.09;35.05
11648;BME280;5880;52.342;9.662;2023-04-06T03:50:33;101239.28;;;7.06;35.36
11648;BME280;5880;52.342;9.662;2023-04-06T03:52:59;101241.19;;;7.05;34.97
11648;BME280;5880;52.342;9.662;2023-04-06T03:55:28;101246.59;;;7.05;35.77
11648;BME280;5880;52.342;9.662;2023-04-06T03:57:54;101239.22;;;6.99;35.65
11648;BME280;5880;52.342;9.662;2023-04-06T04:00:20;101244.91;;;7.04;35.62
11648;BME280;5880;52.342;9.662;2023-04-06T04:02:45;101250.34;;;7.04;35.52
11648;BME280;5880;52.342;9.662;2023-04-06T04:05:11;101236.97;;;7.03;35.23
11648;BME280;5880;52.342;9.662;2023-04-06T04:07:37;101245.97;;;7.03;35.61
11648;BME280;5880;52.342;9.662;2023-04-06T04:10:03;101241.53;;;7.02;35.85
11648;BME280;5880;52.342;9.662;2023-04-06T04:12:29;101239.88;;;7.01;35.95
11648;BME280;5880;52.342;9.662;2023-04-06T04:14:54;101242.13;;;6.97;35.47
11648;BME280;5880;52.342;9.662;2023-04-06T04:17:21;101244.47;;;7.01;35.34
11648;BME280;5880;52.342;9.662;2023-04-06T04:19:46;101248.41;;;6.98;35.46
11648;BME280;5880;52.342;9.662;2023-04-06T04:22:12;101245.06;;;6.96;35.21
11648;BME280;5880;52.342;9.662;2023-04-06T04:24:38;101249.66;;;6.95;36.05
11648;BME280;5880;52.342;9.662;2023-04-06T04:27:03;101247.94;;;6.94;35.89
11648;BME280;5880;52.342;9.662;2023-04-06T04:29:30;101245.16;;;6.88;35.92
11648;BME280;5880;52.342;9.662;2023-04-06T04:31:56;101253.13;;;6.89;35.83
11648;BME280;5880;52.342;9.662;2023-04-06T04:34:22;101245.16;;;6.88;36.04
11648;BME280;5880;52.342;9.662;2023-04-06T04:36:51;101250.81;;;6.86;35.74
11648;BME280;5880;52.342;9.662;2023-04-06T04:39:16;101242.66;;;6.86;35.44
11648;BME280;5880;52.342;9.662;2023-04-06T04:41:42;101243.50;;;6.87;36.09
11648;BME280;5880;52.342;9.662;2023-04-06T04:44:09;101240.50;;;6.82;35.93
11648;BME280;5880;52.342;9.662;2023-04-06T04:46:34;101246.38;;;6.85;35.79
11648;BME280;5880;52.342;9.662;2023-04-06T04:49:00;101247.22;;;6.86;35.74
11648;BME280;5880;52.342;9.662;2023-04-06T04:51:26;101249.09;;;6.85;35.85
11648;BME280;5880;52.342;9.662;2023-04-06T04:53:51;101238.44;;;6.84;36.21
11648;BME280;5880;52.342;9.662;2023-04-06T04:56:17;101243.88;;;6.84;36.04
11648;BME280;5880;52.342;9.662;2023-04-06T04:58:42;101223.75;;;6.78;36.02
11648;BME280;5880;52.342;9.662;2023-04-06T05:01:08;101231.25;;;6.76;35.60
11648;BME280;5880;52.342;9.662;2023-04-06T05:03:34;101241.75;;;6.79;35.84
11648;BME280;5880;52.342;9.662;2023-04-06T05:06:01;101245.47;;;6.78;36.42
11648;BME280;5880;52.342;9.662;2023-04-06T05:08:27;101233.31;;;6.74;35.74
11648;BME280;5880;52.342;9.662;2023-04-06T05:10:52;101241.09;;;6.77;36.24
11648;BME280;5880;52.342;9.662;2023-04-06T05:13:18;101238.38;;;6.77;36.10
11648;BME280;5880;52.342;9.662;2023-04-06T05:15:44;101244.81;;;6.76;36.59
11648;BME280;5880;52.342;9.662;2023-04-06T05:18:10;101239.38;;;6.76;36.09
11648;BME280;5880;52.342;9.662;2023-04-06T05:20:37;101242.09;;;6.76;36.61
11648;BME280;5880;52.342;9.662;2023-04-06T05:23:03;101246.72;;;6.75;36.78
11648;BME280;5880;52.342;9.662;2023-04-06T05:25:29;101241.09;;;6.77;36.38
11648;BME280;5880;52.342;9.662;2023-04-06T05:27:55;101241.28;;;6.75;36.33
11648;BME280;5880;52.342;9.662;2023-04-06T05:30:20;101238.94;;;6.72;37.13
11648;BME280;5880;52.342;9.662;2023-04-06T05:32:46;101240.63;;;6.73;36.77
11648;BME280;5880;52.342;9.662;2023-04-06T05:35:12;101238.72;;;6.74;36.79
11648;BME280;5880;52.342;9.662;2023-04-06T05:37:38;101231.25;;;6.76;36.86
11648;BME280;5880;52.342;9.662;2023-04-06T05:40:05;101238.16;;;6.79;36.79
11648;BME280;5880;52.342;9.662;2023-04-06T05:42:41;101233.84;;;6.84;37.00
11648;BME280;5880;52.342;9.662;2023-04-06T05:45:09;101238.06;;;6.87;36.84
11648;BME280;5880;52.342;9.662;2023-04-06T05:47:37;101238.72;;;6.89;36.44
11648;BME280;5880;52.342;9.662;2023-04-06T05:50:03;101234.75;;;6.91;37.22
11648;BME280;5880;52.342;9.662;2023-04-06T05:52:28;101231.81;;;6.93;36.88
11648;BME280;5880;52.342;9.662;2023-04-06T05:54:54;101243.63;;;7.00;37.19
11648;BME280;5880;52.342;9.662;2023-04-06T05:57:20;101241.81;;;7.07;37.35
11648;BME280;5880;52.342;9.662;2023-04-06T05:59:45;101236.25;;;7.15;37.82
11648;BME280;5880;52.342;9.662;2023-04-06T06:02:11;101231.06;;;7.21;37.02
11648;BME280;5880;52.342;9.662;2023-04-06T06:04:37;101235.78;;;7.33;37.48
11648;BME280;5880;52.342;9.662;2023-04-06T06:07:03;101234.38;;;7.44;37.58
11648;BME280;5880;52.342;9.662;2023-04-06T06:09:29;101235.75;;;7.55;37.43
11648;BME280;5880;52.342;9.662;2023-04-06T06:11:54;101231.25;;;7.69;37.55
11648;BME280;5880;52.342;9.662;2023-04-06T06:14:20;101235.31;;;7.86;37.79
11648;BME280;5880;52.342;9.662;2023-04-06T06:16:47;101242.81;;;8.12;38.44
11648;BME280;5880;52.342;9.662;2023-04-06T06:19:13;101236.97;;;8.57;39.38
11648;BME280;5880;52.342;9.662;2023-04-06T06:21:38;101243.41;;;9.17;40.14
11648;BME280;5880;52.342;9.662;2023-04-06T06:24:04;101240.25;;;9.87;40.67
11648;BME280;5880;52.342;9.662;2023-04-06T06:26:30;101236.44;;;10.66;41.19
11648;BME280;5880;52.342;9.662;2023-04-06T06:28:56;101242.00;;;11.48;40.73
11648;BME280;5880;52.342;9.662;2023-04-06T06:31:22;101244.06;;;12.21;40.58
11648;BME280;5880;52.342;9.662;2023-04-06T06:33:48;101240.84;;;12.92;40.12
11648;BME280;5880;52.342;9.662;2023-04-06T06:36:17;101239.38;;;13.61;39.80
11648;BME280;5880;52.342;9.662;2023-04-06T06:38:44;101237.06;;;14.29;39.46
11648;BME280;5880;52.342;9.662;2023-04-06T06:41:10;101238.84;;;14.87;39.01
11648;BME280;5880;52.342;9.662;2023-04-06T06:43:36;101237.06;;;15.44;38.79
11648;BME280;5880;52.342;9.662;2023-04-06T06:46:02;101236.28;;;15.99;38.10
11648;BME280;5880;52.342;9.662;2023-04-06T06:48:28;101241.38;;;16.46;37.70
11648;BME280;5880;52.342;9.662;2023-04-06T06:50:54;101246.09;;;16.95;37.31
11648;BME280;5880;52.342;9.662;2023-04-06T06:53:20;101240.44;;;17.39;36.68
11648;BME280;5880;52.342;9.662;2023-04-06T06:55:45;101252.44;;;17.82;36.34
11648;BME280;5880;52.342;9.662;2023-04-06T06:58:11;101238.84;;;18.23;35.93
11648;BME280;5880;52.342;9.662;2023-04-06T07:00:37;101237.91;;;18.65;35.50
11648;BME280;5880;52.342;9.662;2023-04-06T07:03:03;101233.06;;;18.97;35.18
11648;BME280;5880;52.342;9.662;2023-04-06T07:05:29;101238.94;;;19.37;34.72
11648;BME280;5880;52.342;9.662;2023-04-06T07:07:55;101233.13;;;19.69;34.24
11648;BME280;5880;52.342;9.662;2023-04-06T07:10:21;101235.56;;;20.01;33.71
11648;BME280;5880;52.342;9.662;2023-04-06T07:12:47;101239.66;;;20.35;33.22
11648;BME280;5880;52.342;9.662;2023-04-06T07:15:13;101227.88;;;20.63;32.90
11648;BME280;5880;52.342;9.662;2023-04-06T07:17:39;101238.34;;;20.82;32.19
11648;BME280;5880;52.342;9.662;2023-04-06T07:20:07;101237.47;;;20.92;32.13
11648;BME280;5880;52.342;9.662;2023-04-06T07:22:32;101237.13;;;20.98;31.75
11648;BME280;5880;52.342;9.662;2023-04-06T07:24:58;101238.97;;;21.13;31.81
11648;BME280;5880;52.342;9.662;2023-04-06T07:27:24;101234.38;;;21.38;31.25
11648;BME280;5880;52.342;9.662;2023-04-06T07:29:49;101230.81;;;21.66;30.93
11648;BME280;5880;52.342;9.662;2023-04-06T07:32:15;101234.78;;;21.84;30.93
11648;BME280;5880;52.342;9.662;2023-04-06T07:34:41;101234.84;;;22.08;30.77
11648;BME280;5880;52.342;9.662;2023-04-06T07:37:06;101223.91;;;22.41;30.71
11648;BME280;5880;52.342;9.662;2023-04-06T07:39:34;101218.81;;;22.67;30.05
11648;BME280;5880;52.342;9.662;2023-04-06T07:42:00;101226.41;;;23.05;30.11
11648;BME280;5880;52.342;9.662;2023-04-06T07:44:25;101229.53;;;23.36;29.54
11648;BME280;5880;52.342;9.662;2023-04-06T07:46:51;101230.16;;;23.66;29.50
11648;BME280;5880;52.342;9.662;2023-04-06T07:49:17;101227.34;;;23.98;29.25
11648;BME280;5880;52.342;9.662;2023-04-06T07:51:43;101226.44;;;24.31;28.98
11648;BME280;5880;52.342;9.662;2023-04-06T07:54:08;101225.59;;;24.58;28.48
11648;BME280;5880;52.342;9.662;2023-04-06T07:56:34;101219.78;;;24.82;28.45
11648;BME280;5880;52.342;9.662;2023-04-06T07:59:00;101226.84;;;25.02;27.71
11648;BME280;5880;52.342;9.662;2023-04-06T08:01:27;101225.53;;;24.99;27.03
11648;BME280;5880;52.342;9.662;2023-04-06T08:03:53;101222.88;;;24.80;27.10
11648;BME280;5880;52.342;9.662;2023-04-06T08:06:21;101212.91;;;24.52;26.91
11648;BME280;5880;52.342;9.662;2023-04-06T08:08:46;101217.72;;;24.32;26.67
11648;BME280;5880;52.342;9.662;2023-04-06T08:11:12;101230.78;;;24.09;26.43
11648;BME280;5880;52.342;9.662;2023-04-06T08:13:38;101226.97;;;23.72;26.13
11648;BME280;5880;52.342;9.662;2023-04-06T08:16:04;101225.53;;;23.42;26.27
11648;BME280;5880;52.342;9.662;2023-04-06T08:18:30;101218.69;;;23.34;26.31
11648;BME280;5880;52.342;9.662;2023-04-06T08:20:56;101221.81;;;23.47;26.64
11648;BME280;5880;52.342;9.662;2023-04-06T08:23:22;101220.84;;;23.70;26.75
11648;BME280;5880;52.342;9.662;2023-04-06T08:25:48;101217.72;;;23.91;26.65
11648;BME280;5880;52.342;9.662;2023-04-06T08:28:13;101218.25;;;24.07;26.03
11648;BME280;5880;52.342;9.662;2023-04-06T08:30:42;101208.75;;;24.08;25.74
11648;BME280;5880;52.342;9.662;2023-04-06T08:33:08;101222.78;;;23.89;25.54
11648;BME280;5880;52.342;9.662;2023-04-06T08:35:34;101220.72;;;23.62;25.87
11648;BME280;5880;52.342;9.662;2023-04-06T08:38:00;101215.53;;;23.22;25.36
11648;BME280;5880;52.342;9.662;2023-04-06T08:40:27;101204.59;;;22.69;25.31
11648;BME280;5880;52.342;9.662;2023-04-06T08:42:55;101221.34;;;22.21;25.10
11648;BME280;5880;52.342;9.662;2023-04-06T08:45:21;101216.91;;;21.66;25.55
11648;BME280;5880;52.342;9.662;2023-04-06T08:47:51;101209.19;;;21.19;26.01
11648;BME280;5880;52.342;9.662;2023-04-06T08:50:18;101205.88;;;20.77;26.04
11648;BME280;5880;52.342;9.662;2023-04-06T08:52:48;101205.97;;;20.57;26.04
11648;BME280;5880;52.342;9.662;2023-04-06T08:55:15;101205.66;;;20.53;26.22
11648;BME280;5880;52.342;9.662;2023-04-06T08:57:42;101208.44;;;20.53;26.35
11648;BME280;5880;52.342;9.662;2023-04-06T09:00:10;101205.44;;;20.50;26.51
11648;BME280;5880;52.342;9.662;2023-04-06T09:02:42;101196.88;;;20.36;26.69
11648;BME280;5880;52.342;9.662;2023-04-06T09:05:08;101203.00;;;20.33;26.73
11648;BME280;5880;52.342;9.662;2023-04-06T09:07:36;101196.09;;;20.30;26.72
11648;BME280;5880;52.342;9.662;2023-04-06T09:10:04;101205.25;;;20.31;26.66
11648;BME280;5880;52.342;9.662;2023-04-06T09:12:31;101201.84;;;20.39;26.63
11648;BME280;5880;52.342;9.662;2023-04-06T09:14:59;101198.19;;;20.54;26.62
11648;BME280;5880;52.342;9.662;2023-04-06T09:17:28;101194.75;;;20.77;26.94
11648;BME280;5880;52.342;9.662;2023-04-06T09:19:54;101204.22;;;21.16;26.62
11648;BME280;5880;52.342;9.662;2023-04-06T09:22:20;101200.06;;;21.53;26.37
11648;BME280;5880;52.342;9.662;2023-04-06T09:24:50;101207.16;;;21.93;26.05
11648;BME280;5880;52.342;9.662;2023-04-06T09:27:17;101194.81;;;22.28;25.56
11648;BME280;5880;52.342;9.662;2023-04-06T09:29:44;101198.41;;;22.53;25.39
11648;BME280;5880;52.342;9.662;2023-04-06T09:32:11;101194.13;;;22.61;25.33
11648;BME280;5880;52.342;9.662;2023-04-06T09:34:38;101201.88;;;22.64;25.44
11648;BME280;5880;52.342;9.662;2023-04-06T09:37:17;101191.41;;;22.74;25.16
11648;BME280;5880;52.342;9.662;2023-04-06T09:39:45;101199.72;;;22.99;25.19
11648;BME280;5880;52.342;9.662;2023-04-06T09:42:26;101182.00;;;23.27;25.05
11648;BME280;5880;52.342;9.662;2023-04-06T09:44:52;101191.78;;;23.57;24.94
11648;BME280;5880;52.342;9.662;2023-04-06T09:47:19;101179.25;;;23.88;24.46
11648;BME280;5880;52.342;9.662;2023-04-06T09:49:47;101192.41;;;24.29;24.45
11648;BME280;5880;52.342;9.662;2023-04-06T09:52:16;101183.69;;;24.58;24.24
11648;BME280;5880;52.342;9.662;2023-04-06T09:54:44;101190.16;;;24.81;24.04
11648;BME280;5880;52.342;9.662;2023-04-06T10:00:22;101179.22;;;25.30;23.67
11648;BME280;5880;52.342;9.662;2023-04-06T10:02:59;101180.06;;;25.30;23.38
11648;BME280;5880;52.342;9.662;2023-04-06T10:05:46;101175.84;;;25.19;22.91
11648;BME280;5880;52.342;9.662;2023-04-06T10:08:16;101173.03;;;24.96;23.27
11648;BME280;5880;52.342;9.662;2023-04-06T10:10:42;101174.34;;;24.76;23.06
11648;BME280;5880;52.342;9.662;2023-04-06T10:13:11;101173.78;;;24.52;23.38
11648;BME280;5880;52.342;9.662;2023-04-06T10:15:38;101171.63;;;24.21;23.57
11648;BME280;5880;52.342;9.662;2023-04-06T10:18:05;101167.69;;;23.94;23.71
11648;BME280;5880;52.342;9.662;2023-04-06T10:23:19;101152.84;;;23.66;23.31
11648;BME280;5880;52.342;9.662;2023-04-06T10:25:56;101159.75;;;23.55;23.12
11648;BME280;5880;52.342;9.662;2023-04-06T10:28:30;101163.88;;;23.44;23.18
11648;BME280;5880;52.342;9.662;2023-04-06T10:31:00;101163.31;;;23.28;23.22
11648;BME280;5880;52.342;9.662;2023-04-06T10:33:27;101169.84;;;23.04;23.54
11648;BME280;5880;52.342;9.662;2023-04-06T10:35:53;101156.34;;;22.73;23.48
11648;BME280;5880;52.342;9.662;2023-04-06T10:38:21;101151.25;;;22.38;23.63
11648;BME280;5880;52.342;9.662;2023-04-06T10:40:48;101143.34;;;22.02;23.73
11648;BME280;5880;52.342;9.662;2023-04-06T10:43:20;101147.91;;;21.68;23.73
11648;BME280;5880;52.342;9.662;2023-04-06T10:45:57;101149.56;;;21.35;23.87
11648;BME280;5880;52.342;9.662;2023-04-06T10:48:36;101150.38;;;21.06;23.99
11648;BME280;5880;52.342;9.662;2023-04-06T10:51:14;101150.88;;;20.79;24.15
11648;BME280;5880;52.342;9.662;2023-04-06T10:53:45;101153.78;;;20.54;23.98
11648;BME280;5880;52.342;9.662;2023-04-06T10:56:17;101143.91;;;20.27;24.10
11648;BME280;5880;52.342;9.662;2023-04-06T10:58:48;101138.19;;;20.03;24.17
11648;BME280;5880;52.342;9.662;2023-04-06T11:01:16;101136.56;;;19.87;24.67
11648;BME280;5880;52.342;9.662;2023-04-06T11:03:48;101131.63;;;19.73;24.58
11648;BME280;5880;52.342;9.662;2023-04-06T11:06:26;101139.66;;;19.65;24.59
11648;BME280;5880;52.342;9.662;2023-04-06T11:08:55;101130.78;;;19.52;24.61
11648;BME280;5880;52.342;9.662;2023-04-06T11:11:23;101134.16;;;19.44;24.40
11648;BME280;5880;52.342;9.662;2023-04-06T11:13:57;101140.81;;;19.33;24.34
11648;BME280;5880;52.342;9.662;2023-04-06T11:16:26;101133.06;;;19.19;24.74
11648;BME280;5880;52.342;9.662;2023-04-06T11:18:56;101121.69;;;19.06;24.65
11648;BME280;5880;52.342;9.662;2023-04-06T11:21:42;101124.47;;;18.95;24.38
11648;BME280;5880;52.342;9.662;2023-04-06T11:24:22;101127.78;;;18.77;24.53
11648;BME280;5880;52.342;9.662;2023-04-06T11:26:56;101115.00;;;18.66;24.58
11648;BME280;5880;52.342;9.662;2023-04-06T11:29:25;101120.53;;;18.55;24.56
11648;BME280;5880;52.342;9.662;2023-04-06T11:32:05;101119.94;;;18.48;24.64
11648;BME280;5880;52.342;9.662;2023-04-06T11:34:39;101114.97;;;18.45;24.81
11648;BME280;5880;52.342;9.662;2023-04-06T11:37:11;101117.44;;;18.42;24.91
11648;BME280;5880;52.342;9.662;2023-04-06T11:39:52;101110.53;;;18.39;25.30
11648;BME280;5880;52.342;9.662;2023-04-06T11:42:37;101107.50;;;18.41;25.28
11648;BME280;5880;52.342;9.662;2023-04-06T11:45:04;101109.13;;;18.42;25.24
11648;BME280;5880;52.342;9.662;2023-04-06T11:47:35;101111.34;;;18.40;25.35
11648;BME280;5880;52.342;9.662;2023-04-06T11:50:12;101101.38;;;18.33;25.31
11648;BME280;5880;52.342;9.662;2023-04-06T11:52:40;101116.59;;;18.31;25.08
11648;BME280;5880;52.342;9.662;2023-04-06T11:55:15;101104.09;;;18.23;25.28
11648;BME280;5880;52.342;9.662;2023-04-06T11:57:42;101094.72;;;18.24;25.35
11648;BME280;5880;52.342;9.662;2023-04-06T12:00:09;101102.16;;;18.24;25.26
11648;BME280;5880;52.342;9.662;2023-04-06T12:02:37;101087.22;;;18.20;25.50
11648;BME280;5880;52.342;9.662;2023-04-06T12:05:05;101109.94;;;18.22;25.54
11648;BME280;5880;52.342;9.662;2023-04-06T12:07:32;101093.84;;;18.19;25.33
11648;BME280;5880;52.342;9.662;2023-04-06T12:10:03;101088.63;;;18.17;25.25
11648;BME280;5880;52.342;9.662;2023-04-06T12:12:29;101087.47;;;18.13;25.25
11648;BME280;5880;52.342;9.662;2023-04-06T12:14:56;101091.06;;;18.08;25.41
11648;BME280;5880;52.342;9.662;2023-04-06T12:17:22;101085.78;;;18.07;25.37
11648;BME280;5880;52.342;9.662;2023-04-06T12:19:51;101079.44;;;18.06;25.33
11648;BME280;5880;52.342;9.662;2023-04-06T12:22:18;101087.72;;;18.01;25.28
11648;BME280;5880;52.342;9.662;2023-04-06T12:24:43;101087.16;;;17.99;25.44
11648;BME280;5880;52.342;9.662;2023-04-06T12:27:09;101079.69;;;18.00;25.39
11648;BME280;5880;52.342;9.662;2023-04-06T12:29:37;101078.56;;;17.96;25.51
11648;BME280;5880;52.342;9.662;2023-04-06T12:32:03;101078.53;;;17.90;25.46
11648;BME280;5880;52.342;9.662;2023-04-06T12:34:29;101083.25;;;17.90;25.43
11648;BME280;5880;52.342;9.662;2023-04-06T12:36:54;101086.00;;;17.90;25.54
11648;BME280;5880;52.342;9.662;2023-04-06T12:39:21;101079.94;;;17.93;25.88
11648;BME280;5880;52.342;9.662;2023-04-06T12:41:47;101080.50;;;17.95;25.94
11648;BME280;5880;52.342;9.662;2023-04-06T12:44:13;101095.44;;;17.99;26.08
11648;BME280;5880;52.342;9.662;2023-04-06T12:46:38;101074.72;;;18.02;25.66
11648;BME280;5880;52.342;9.662;2023-04-06T12:49:04;101055.09;;;17.98;25.68
11648;BME280;5880;52.342;9.662;2023-04-06T12:51:30;101058.13;;;18.02;25.67
11648;BME280;5880;52.342;9.662;2023-04-06T12:53:56;101060.06;;;18.01;25.73
11648;BME280;5880;52.342;9.662;2023-04-06T12:56:22;101058.69;;;18.04;25.82
11648;BME280;5880;52.342;9.662;2023-04-06T12:58:50;101057.63;;;18.10;25.65
11648;BME280;5880;52.342;9.662;2023-04-06T13:01:16;101052.63;;;18.12;25.89
11648;BME280;5880;52.342;9.662;2023-04-06T13:03:43;101047.06;;;18.12;25.61
11648;BME280;5880;52.342;9.662;2023-04-06T13:06:09;101052.09;;;18.15;25.73
11648;BME280;5880;52.342;9.662;2023-04-06T13:08:37;101051.28;;;18.20;25.83
11648;BME280;5880;52.342;9.662;2023-04-06T13:11:03;101056.25;;;18.23;25.84